Time;durP1;ratioP1;P1;durP2;ratioP2;P2;SDS_P1;SDS_P2;PMS_P1;PMS_P2;Temp;Humidity;BMP_temperature;BMP_pressure;BME280_temperature;BME280_humidity;BME280_pressure;Samples;Min_cycle;Max_cycle;Signal;HPM_P1;HPM_P2
2022/08/03 00:02:17;;;;;;;11.80;4.10;;;;;;;18.82;56.27;99188.39;106446;1274;25307;-83
2022/08/03 00:04:52;;;;;;;10.40;4.10;;;;;;;18.79;56.15;99187.14;106372;1274;22691;-84
2022/08/03 00:07:25;;;;;;;12.00;4.10;;;;;;;18.76;56.30;99185.09;106512;1274;22654;-85
2022/08/03 00:10:02;;;;;;;10.80;5.60;;;;;;;18.74;56.44;99186.80;106336;1271;22531;-84
2022/08/03 00:12:35;;;;;;;12.30;5.80;;;;;;;18.70;56.43;99191.06;106376;1274;22538;-89
2022/08/03 00:15:13;;;;;;;11.50;5.00;;;;;;;18.66;56.44;99187.17;106335;1271;22684;-84
2022/08/03 00:17:50;;;;;;;11.90;4.80;;;;;;;18.60;56.44;99182.52;106311;1271;24287;-87
2022/08/03 00:20:31;;;;;;;11.90;4.30;;;;;;;18.56;56.62;99181.36;106490;1271;25641;-84
2022/08/03 00:23:06;;;;;;;12.60;4.40;;;;;;;18.55;56.62;99181.66;106349;1274;22528;-84
2022/08/03 00:26:07;;;;;;;11.40;4.30;;;;;;;18.55;56.62;99182.34;106348;1274;22713;-85
2022/08/03 00:28:44;;;;;;;11.00;4.00;;;;;;;18.57;56.76;99181.80;106519;1271;25438;-83
2022/08/03 00:31:17;;;;;;;11.50;4.50;;;;;;;18.57;56.74;99181.55;106359;1271;22693;-82
2022/08/03 00:33:50;;;;;;;10.20;4.60;;;;;;;18.57;56.73;99181.97;106401;1271;22526;-88
2022/08/03 00:36:40;;;;;;;10.30;4.00;;;;;;;18.55;56.74;99177.61;106576;1271;22621;-87
2022/08/03 00:39:13;;;;;;;8.80;3.90;;;;;;;18.54;56.87;99177.03;106388;1271;24387;-84
2022/08/03 00:41:45;;;;;;;9.70;4.20;;;;;;;18.51;56.98;99174.70;106353;1272;22577;-83
2022/08/03 00:44:18;;;;;;;10.80;3.70;;;;;;;18.45;56.92;99178.15;106348;1274;22557;-84
2022/08/03 00:46:51;;;;;;;10.20;4.20;;;;;;;18.41;57.13;99178.56;106125;1274;22611;-86
2022/08/03 00:49:25;;;;;;;11.10;3.90;;;;;;;18.38;57.04;99179.45;106370;1274;22531;-86
2022/08/03 00:52:12;;;;;;;10.70;4.00;;;;;;;18.35;57.06;99176.14;106684;1273;25296;-83
2022/08/03 00:54:49;;;;;;;8.90;4.00;;;;;;;18.34;57.17;99175.27;106220;1274;22534;-83
2022/08/03 00:57:38;;;;;;;8.90;4.10;;;;;;;18.36;57.29;99174.42;106135;1275;22747;-86
2022/08/03 01:00:14;;;;;;;9.40;4.30;;;;;;;18.35;57.13;99170.58;106320;1274;24286;-85
2022/08/03 01:03:15;;;;;;;8.50;4.30;;;;;;;18.35;57.28;99170.74;106362;1274;22548;-86
2022/08/03 01:06:48;;;;;;;11.20;4.20;;;;;;;18.33;57.33;99171.10;106689;1274;22682;-86
2022/08/03 01:09:57;;;;;;;11.40;4.60;;;;;;;18.29;57.38;99167.22;105752;1280;22652;-84
2022/08/03 01:13:15;;;;;;;11.40;4.50;;;;;;;18.25;57.38;99168.89;105975;1277;22694;-84
2022/08/03 01:16:29;;;;;;;;;;;;;;;;;;;;;
2022/08/03 01:19:56;;;;;;;10.00;4.20;;;;;;;18.19;57.49;99168.92;105642;1279;24111;-85
2022/08/03 01:24:06;;;;;;;;;;;;;;;;;;;;;
2022/08/03 01:28:16;;;;;;;8.70;3.90;;;;;;;18.25;57.60;99167.04;105653;1280;22684;-83
2022/08/03 01:31:44;;;;;;;;;;;;;;;;;;;;;
2022/08/03 01:34:44;;;;;;;9.80;4.30;;;;;;;18.24;57.91;99156.86;105903;1280;25205;-83
2022/08/03 01:37:38;;;;;;;10.00;4.00;;;;;;;18.22;57.87;99157.36;105959;1280;25541;-85
2022/08/03 01:40:56;;;;;;;10.20;4.10;;;;;;;18.19;57.93;99159.39;105789;1281;25335;-84
2022/08/03 01:44:06;;;;;;;9.30;4.20;;;;;;;18.15;57.88;99156.08;106002;1279;22581;-83
2022/08/03 01:46:50;;;;;;;12.40;4.80;;;;;;;18.10;57.99;99152.19;106567;1271;22685;-85
2022/08/03 01:50:08;;;;;;;9.80;3.60;;;;;;;18.07;58.08;99153.56;106369;1272;23175;-85
2022/08/03 01:53:45;;;;;;;;;;;;;;;;;;;;;
2022/08/03 01:56:20;;;;;;;8.40;3.50;;;;;;;18.11;58.25;99150.44;106441;1271;22613;-85
2022/08/03 01:59:47;;;;;;;8.80;4.20;;;;;;;18.13;58.45;99148.09;106424;1271;25457;-83
2022/08/03 02:02:31;;;;;;;10.40;4.50;;;;;;;18.12;58.44;99150.16;106251;1271;22563;-85
2022/08/03 02:05:35;;;;;;;10.30;4.40;;;;;;;18.10;58.64;99148.77;106621;1271;25210;-85
2022/08/03 02:08:58;;;;;;;;;;;;;;;;;;;;;
2022/08/03 02:12:13;;;;;;;;;;;;;;;;;;;;;
2022/08/03 02:15:32;;;;;;;;;;;;;;;;;;;;;
2022/08/03 02:18:21;;;;;;;10.40;3.90;;;;;;;18.05;58.78;99142.21;106321;1271;22535;-87
2022/08/03 02:21:05;;;;;;;11.90;4.40;;;;;;;18.07;58.76;99137.91;106505;1272;22529;-84
2022/08/03 02:24:08;;;;;;;10.40;4.30;;;;;;;18.10;58.82;99140.64;106968;1271;23068;-84
2022/08/03 02:27:28;;;;;;;9.00;4.40;;;;;;;18.13;58.78;99136.20;106436;1274;23184;-83
2022/08/03 02:30:37;;;;;;;7.90;3.60;;;;;;;18.15;58.92;99134.58;106527;1271;22640;-84
2022/08/03 02:33:43;;;;;;;8.60;3.60;;;;;;;18.17;58.97;99132.55;106692;1271;22529;-86
2022/08/03 02:36:14;;;;;;;8.80;3.80;;;;;;;18.17;58.96;99130.38;106384;1271;22544;-84
2022/08/03 02:39:01;;;;;;;7.10;3.30;;;;;;;18.17;58.93;99130.04;106590;1271;22551;-85
2022/08/03 02:41:36;;;;;;;7.60;3.10;;;;;;;18.17;58.93;99129.90;106415;1271;22533;-84
2022/08/03 02:44:08;;;;;;;6.90;3.40;;;;;;;18.17;58.97;99127.14;106178;1271;25604;-84
2022/08/03 02:46:41;;;;;;;6.60;2.50;;;;;;;18.19;58.94;99125.53;106545;1271;23933;-83
2022/08/03 02:49:17;;;;;;;6.90;3.10;;;;;;;18.21;59.00;99128.91;106512;1271;22744;-85
2022/08/03 02:51:52;;;;;;;7.00;3.20;;;;;;;18.24;58.97;99127.90;106156;1272;24259;-84
2022/08/03 02:54:24;;;;;;;8.70;3.60;;;;;;;18.29;59.09;99129.39;106406;1271;22560;-86
2022/08/03 02:57:01;;;;;;;9.20;3.60;;;;;;;18.31;59.22;99134.02;106443;1274;22556;-84
2022/08/03 02:59:32;;;;;;;7.30;3.30;;;;;;;18.30;59.17;99134.33;106462;1274;22535;-87
2022/08/03 03:02:05;;;;;;;8.40;3.20;;;;;;;18.28;59.30;99134.97;106333;1271;22814;-84
2022/08/03 03:04:34;;;;;;;9.50;3.50;;;;;;;18.25;59.29;99131.92;106480;1271;24262;-85
2022/08/03 03:07:09;;;;;;;11.10;3.70;;;;;;;18.23;59.36;99133.61;106606;1274;24098;-86
2022/08/03 03:09:39;;;;;;;12.60;3.70;;;;;;;18.18;59.43;99136.61;106247;1274;24306;-82
2022/08/03 03:12:08;;;;;;;9.10;3.30;;;;;;;18.14;59.51;99138.87;106438;1274;24292;-85
2022/08/03 03:14:45;;;;;;;8.40;3.30;;;;;;;18.12;59.48;99137.80;106175;1271;22534;-84
2022/08/03 03:17:21;;;;;;;10.20;3.40;;;;;;;18.12;59.55;99139.05;106380;1272;24250;-85
2022/08/03 03:20:01;;;;;;;8.70;3.80;;;;;;;18.12;59.62;99139.96;106113;1277;22531;-88
2022/08/03 03:22:31;;;;;;;8.20;3.60;;;;;;;18.08;59.57;99145.50;106698;1271;22677;-86
2022/08/03 03:24:59;;;;;;;10.20;3.50;;;;;;;18.06;59.70;99150.27;106485;1271;24422;-83
2022/08/03 03:27:38;;;;;;;8.80;3.70;;;;;;;18.01;59.74;99149.89;106374;1271;22819;-83
2022/08/03 03:30:08;;;;;;;7.30;3.90;;;;;;;17.94;59.85;99150.16;106299;1274;24243;-83
2022/08/03 03:32:38;;;;;;;12.10;3.90;;;;;;;17.88;59.87;99149.90;106383;1271;22535;-84
2022/08/03 03:35:12;;;;;;;11.00;4.40;;;;;;;17.81;59.85;99149.05;106347;1274;22615;-83
2022/08/03 03:37:47;;;;;;;9.50;3.90;;;;;;;17.76;60.00;99147.19;106366;1274;24268;-86
2022/08/03 03:40:18;;;;;;;9.60;4.20;;;;;;;17.72;60.01;99145.56;106341;1274;24061;-85
2022/08/03 03:42:45;;;;;;;10.20;3.80;;;;;;;17.71;60.12;99146.03;106261;1274;22541;-84
2022/08/03 03:45:18;;;;;;;9.80;4.10;;;;;;;17.72;60.22;99139.88;106410;1272;25307;-83
2022/08/03 03:47:49;;;;;;;9.40;4.00;;;;;;;17.73;60.27;99141.58;106389;1271;22719;-86
2022/08/03 03:50:25;;;;;;;8.70;3.80;;;;;;;17.74;60.34;99142.29;106898;1274;23972;-84
2022/08/03 03:53:03;;;;;;;10.90;3.90;;;;;;;17.70;60.28;99144.20;106443;1271;24408;-84
2022/08/03 03:55:46;;;;;;;8.60;3.80;;;;;;;17.69;60.43;99146.39;106436;1274;23895;-84
2022/08/03 03:58:19;;;;;;;8.60;3.80;;;;;;;17.69;60.47;99150.38;106331;1274;23974;-84
2022/08/03 04:00:49;;;;;;;11.60;4.00;;;;;;;17.69;60.51;99154.18;106237;1274;22627;-84
2022/08/03 04:03:21;;;;;;;10.00;4.10;;;;;;;17.68;60.54;99157.11;106408;1274;24419;-83
2022/08/03 04:12:03;;;;;;;8.60;3.90;;;;;;;17.70;60.70;99153.87;106224;1274;24401;-86
2022/08/03 04:15:07;;;;;;;;;;;;;;;;;;;;;
2022/08/03 04:18:06;;;;;;;9.30;3.80;;;;;;;17.80;60.81;99157.56;106618;1271;24152;-83
2022/08/03 04:20:54;;;;;;;12.30;3.90;;;;;;;17.90;60.85;99158.80;106417;1274;23856;-87
2022/08/03 04:23:33;;;;;;;9.10;3.70;;;;;;;17.95;60.88;99156.92;106428;1271;23900;-84
2022/08/03 04:26:28;;;;;;;7.20;3.60;;;;;;;18.02;60.87;99162.53;106427;1271;23920;-84
2022/08/03 04:29:16;;;;;;;10.10;3.60;;;;;;;18.07;60.90;99163.95;106432;1271;22768;-84
2022/08/03 04:32:16;;;;;;;;;;;;;;;;;;;;;
2022/08/03 04:34:52;;;;;;;10.90;3.50;;;;;;;18.27;60.94;99165.27;106306;1272;22531;-83
2022/08/03 04:37:53;;;;;;;9.10;3.30;;;;;;;18.40;60.87;99164.14;106141;1275;22538;-84
2022/08/03 04:40:44;;;;;;;8.30;3.40;;;;;;;18.57;61.14;99169.72;106438;1271;22545;-84
2022/08/03 04:43:21;;;;;;;9.80;2.90;;;;;;;18.73;61.14;99174.62;106363;1275;22556;-83
2022/08/03 04:46:05;;;;;;;12.50;4.10;;;;;;;18.85;61.03;99175.47;106233;1271;24307;-84
2022/08/03 04:48:45;;;;;;;16.00;4.70;;;;;;;18.94;61.04;99175.12;106879;1271;22706;-84
2022/08/03 04:51:42;;;;;;;11.20;4.20;;;;;;;19.02;61.00;99165.89;106091;1274;22643;-86
2022/08/03 04:54:18;;;;;;;13.50;4.00;;;;;;;19.15;61.13;99167.67;106429;1272;25330;-84
2022/08/03 04:56:58;;;;;;;13.40;3.40;;;;;;;19.24;60.84;99167.55;106482;1271;22543;-86
2022/08/03 04:59:53;;;;;;;11.50;4.10;;;;;;;19.33;61.02;99168.05;106472;1272;25257;-83
2022/08/03 05:02:55;;;;;;;;;;;;;;;;;;;;;
2022/08/03 05:06:49;;;;;;;19.70;4.20;;;;;;;19.71;61.00;99162.71;106623;1271;22704;-85
2022/08/03 05:09:37;;;;;;;15.70;4.20;;;;;;;19.76;60.97;99164.85;106169;1280;23397;-84
2022/08/03 05:12:16;;;;;;;16.70;4.30;;;;;;;19.95;60.98;99164.41;105863;1281;24282;-83
2022/08/03 05:15:15;;;;;;;12.30;3.90;;;;;;;20.15;61.11;99164.42;106344;1277;22545;-86
2022/08/03 05:18:39;;;;;;;;;;;;;;;;;;;;;
2022/08/03 05:21:35;;;;;;;15.10;4.50;;;;;;;20.62;60.91;99160.05;106148;1277;24587;-86
2022/08/03 05:24:10;;;;;;;16.90;4.50;;;;;;;20.81;61.05;99156.08;105850;1277;25352;-84
2022/08/03 05:27:03;;;;;;;10.70;3.40;;;;;;;20.99;60.91;99160.77;105891;1277;23020;-85
2022/08/03 05:30:17;;;;;;;;;;;;;;;;;;;;;
2022/08/03 05:33:48;;;;;;;;;;;;;;;;;;;;;
2022/08/03 05:37:09;;;;;;;15.20;4.00;;;;;;;21.85;60.83;99157.39;105654;1284;23078;-86
2022/08/03 05:40:23;;;;;;;12.40;3.10;;;;;;;22.18;60.64;99163.44;105470;1283;23922;-86
2022/08/03 05:46:33;;;;;;;18.20;3.60;;;;;;;22.65;59.81;99165.98;105979;1277;22567;-86
2022/08/03 05:49:28;;;;;;;9.70;3.40;;;;;;;22.79;59.86;99167.66;105936;1277;24367;-86
2022/08/03 05:52:14;;;;;;;13.40;3.20;;;;;;;22.99;59.56;99172.17;106480;1277;23201;-83
2022/08/03 05:54:54;;;;;;;17.10;3.50;;;;;;;23.18;59.56;99171.31;106373;1278;24418;-88
2022/08/03 05:57:29;;;;;;;12.00;3.10;;;;;;;23.35;59.41;99165.39;106113;1277;24284;-88
2022/08/03 06:00:02;;;;;;;8.20;2.90;;;;;;;23.49;59.19;99169.33;105798;1277;22548;-84
2022/08/03 06:02:41;;;;;;;11.00;2.40;;;;;;;23.65;59.41;99167.63;106188;1277;25492;-84
2022/08/03 06:05:38;;;;;;;;;;;;;;;;;;;;;
2022/08/03 06:08:51;;;;;;;10.30;2.80;;;;;;;23.98;58.64;99166.48;105782;1279;26831;-87
2022/08/03 06:11:40;;;;;;;12.80;2.50;;;;;;;24.08;58.85;99172.05;106421;1274;22645;-85
2022/08/03 06:14:07;;;;;;;8.80;2.30;;;;;;;24.22;58.80;99172.81;106352;1274;24288;-84
2022/08/03 06:16:34;;;;;;;12.20;2.60;;;;;;;24.36;58.56;99173.05;106332;1271;22534;-89
2022/08/03 06:19:05;;;;;;;6.40;2.20;;;;;;;24.44;58.64;99173.46;106367;1274;24353;-88
2022/08/03 06:21:44;;;;;;;8.00;2.00;;;;;;;24.59;58.60;99169.52;106125;1274;25238;-84
2022/08/03 06:24:16;;;;;;;6.90;1.90;;;;;;;24.76;58.61;99170.41;106382;1274;25454;-85
2022/08/03 06:26:46;;;;;;;7.30;2.20;;;;;;;24.94;58.57;99170.79;106113;1274;22589;-89
2022/08/03 06:29:27;;;;;;;6.40;2.00;;;;;;;25.13;58.53;99165.71;106614;1271;24280;-89
2022/08/03 06:31:57;;;;;;;8.80;2.40;;;;;;;25.30;58.30;99163.80;106305;1274;22574;-85
2022/08/03 06:34:25;;;;;;;7.80;2.10;;;;;;;25.44;58.15;99168.48;106391;1274;22959;-86
2022/08/03 06:36:56;;;;;;;7.60;2.40;;;;;;;25.59;58.23;99170.86;106408;1271;25448;-85
2022/08/03 06:39:34;;;;;;;6.40;2.30;;;;;;;25.76;58.06;99171.83;106436;1271;25451;-85
2022/08/03 06:42:09;;;;;;;9.40;2.30;;;;;;;25.91;57.85;99172.09;106411;1271;22610;-84
2022/08/03 06:44:37;;;;;;;7.30;2.10;;;;;;;26.02;57.88;99172.50;106238;1272;22557;-86
2022/08/03 06:47:05;;;;;;;11.40;1.90;;;;;;;26.12;57.42;99178.61;106394;1271;24302;-86
2022/08/03 06:49:39;;;;;;;6.20;1.90;;;;;;;26.16;57.26;99176.19;106289;1271;22553;-85
2022/08/03 06:52:12;;;;;;;8.60;2.00;;;;;;;26.26;57.25;99175.73;106441;1271;24402;-87
2022/08/03 06:54:44;;;;;;;14.30;2.60;;;;;;;26.37;57.16;99174.03;106428;1274;24401;-87
2022/08/03 06:57:11;;;;;;;14.60;2.60;;;;;;;26.48;56.98;99180.30;106436;1272;25349;-85
2022/08/03 06:59:39;;;;;;;6.40;1.90;;;;;;;26.59;56.69;99183.96;106291;1274;22540;-85
2022/08/03 07:02:09;;;;;;;13.90;2.40;;;;;;;26.72;56.72;99181.81;106790;1271;22698;-83
2022/08/03 07:04:36;;;;;;;9.90;1.80;;;;;;;26.85;56.66;99180.87;106461;1271;22540;-85
2022/08/03 07:07:14;;;;;;;11.80;2.30;;;;;;;26.95;56.38;99180.06;106705;1271;25551;-86
2022/08/03 07:09:47;;;;;;;8.10;2.10;;;;;;;27.10;56.27;99178.17;106533;1274;22707;-86
2022/08/03 07:12:19;;;;;;;9.80;2.40;;;;;;;27.18;56.35;99180.33;106516;1272;25469;-84
2022/08/03 07:14:51;;;;;;;17.30;2.60;;;;;;;27.27;56.11;99180.39;106539;1271;22768;-86
2022/08/03 07:17:23;;;;;;;7.00;2.00;;;;;;;27.41;56.13;99172.84;106389;1271;22542;-85
2022/08/03 07:19:50;;;;;;;7.30;1.80;;;;;;;27.52;55.96;99169.18;106380;1271;22531;-85
2022/08/03 07:22:20;;;;;;;7.00;1.80;;;;;;;27.67;56.06;99173.92;106398;1271;24254;-85
2022/08/03 07:24:50;;;;;;;8.10;1.80;;;;;;;27.84;55.59;99171.42;106531;1271;22607;-85
2022/08/03 07:27:20;;;;;;;8.90;2.00;;;;;;;27.99;55.63;99175.46;106266;1274;24374;-86
2022/08/03 07:29:52;;;;;;;6.90;2.00;;;;;;;28.16;55.60;99171.32;106408;1274;24373;-86
2022/08/03 07:32:27;;;;;;;5.20;1.90;;;;;;;28.37;55.55;99175.04;106560;1271;22580;-86
2022/08/03 07:34:57;;;;;;;9.80;2.50;;;;;;;28.58;55.52;99172.30;106505;1271;22567;-85
2022/08/03 07:37:35;;;;;;;5.70;1.70;;;;;;;28.70;55.02;99173.13;106568;1271;22622;-88
2022/08/03 07:40:09;;;;;;;6.50;1.90;;;;;;;28.76;54.69;99173.87;106263;1271;22614;-85
2022/08/03 07:42:37;;;;;;;7.40;1.80;;;;;;;28.85;54.76;99170.11;106494;1271;22541;-87
2022/08/03 07:45:07;;;;;;;4.90;1.70;;;;;;;28.96;54.72;99166.34;106374;1271;25288;-87
2022/08/03 07:47:34;;;;;;;4.80;1.70;;;;;;;29.15;54.74;99167.31;106515;1271;23675;-89
2022/08/03 07:50:05;;;;;;;5.80;1.80;;;;;;;29.32;54.32;99169.70;106289;1271;22772;-86
2022/08/03 07:52:50;;;;;;;5.70;1.60;;;;;;;29.42;54.03;99165.19;106342;1271;22548;-93
2022/08/03 07:55:26;;;;;;;7.20;1.60;;;;;;;29.58;54.11;99166.63;106315;1271;22531;-86
2022/08/03 07:58:17;;;;;;;4.60;1.60;;;;;;;29.70;53.68;99169.69;106311;1271;22551;-86
2022/08/03 08:00:53;;;;;;;5.80;1.90;;;;;;;29.84;53.55;99167.92;106451;1271;22544;-87
2022/08/03 08:03:28;;;;;;;3.80;1.40;;;;;;;29.91;53.41;99169.02;106498;1271;22552;-87
2022/08/03 08:06:01;;;;;;;3.90;1.60;;;;;;;29.94;52.69;99173.59;106375;1271;22609;-85
2022/08/03 08:08:36;;;;;;;5.60;2.00;;;;;;;29.66;52.21;99172.73;106450;1271;24344;-88
2022/08/03 08:11:13;;;;;;;4.00;1.80;;;;;;;29.63;52.89;99170.16;106538;1271;25234;-86
2022/08/03 08:14:06;;;;;;;6.60;1.70;;;;;;;29.82;52.72;99166.05;106415;1271;24355;-87
2022/08/03 08:16:43;;;;;;;2.90;1.40;;;;;;;30.06;52.93;99167.12;106482;1271;22533;-87
2022/08/03 08:19:18;;;;;;;3.60;1.50;;;;;;;30.23;52.29;99167.64;106281;1271;24263;-87
2022/08/03 08:21:45;;;;;;;4.10;1.20;;;;;;;30.25;51.37;99165.77;106257;1275;24407;-89
2022/08/03 08:24:14;;;;;;;4.40;1.30;;;;;;;30.15;51.38;99167.09;106558;1271;22531;-87
2022/08/03 08:26:41;;;;;;;5.30;1.60;;;;;;;30.19;51.68;99165.70;106359;1271;23898;-86
2022/08/03 08:29:18;;;;;;;10.80;4.00;;;;;;;30.26;51.75;99168.82;106258;1271;25213;-86
2022/08/03 08:31:51;;;;;;;7.10;2.10;;;;;;;30.45;51.51;99162.86;106381;1271;22531;-88
2022/08/03 08:34:19;;;;;;;4.10;1.30;;;;;;;30.56;51.21;99162.96;106388;1274;22575;-86
2022/08/03 08:36:53;;;;;;;3.80;1.50;;;;;;;30.57;50.84;99163.60;106506;1274;22561;-87
2022/08/03 08:39:30;;;;;;;3.90;1.60;;;;;;;30.59;50.87;99164.75;106514;1271;22661;-86
2022/08/03 08:42:02;;;;;;;4.90;1.50;;;;;;;30.63;50.14;99164.70;106573;1271;22630;-89
2022/08/03 08:44:42;;;;;;;3.10;1.20;;;;;;;30.61;50.02;99165.19;106541;1271;22531;-86
2022/08/03 08:47:11;;;;;;;5.60;1.50;;;;;;;30.60;50.19;99165.88;106482;1271;22685;-85
2022/08/03 08:49:51;;;;;;;5.20;1.50;;;;;;;30.71;50.33;99168.81;106291;1274;25338;-86
2022/08/03 08:52:24;;;;;;;3.10;1.50;;;;;;;30.73;49.74;99168.73;106374;1271;22547;-85
2022/08/03 08:55:04;;;;;;;3.70;1.40;;;;;;;30.81;49.74;99165.54;106541;1271;22690;-85
2022/08/03 08:58:37;;;;;;;;;;;;;;;;;;;;;
2022/08/03 09:01:21;;;;;;;17.70;8.40;;;;;;;30.60;49.82;99164.52;106432;1271;24434;-88
2022/08/03 09:04:00;;;;;;;10.00;2.80;;;;;;;30.89;49.92;99166.63;106381;1271;23164;-86
2022/08/03 09:06:43;;;;;;;7.50;1.70;;;;;;;31.17;49.47;99165.13;106464;1274;22562;-88
2022/08/03 09:09:14;;;;;;;6.30;1.50;;;;;;;31.32;49.61;99164.48;106330;1271;22729;-87
2022/08/03 09:11:47;;;;;;;6.90;2.20;;;;;;;31.57;49.60;99161.21;106510;1271;22854;-86
2022/08/03 09:14:23;;;;;;;19.10;9.90;;;;;;;31.84;49.22;99155.48;106549;1271;22532;-90
2022/08/03 09:17:15;;;;;;;23.50;11.80;;;;;;;32.04;49.25;99154.53;106468;1271;24211;-92
2022/08/03 09:20:08;;;;;;;8.60;3.80;;;;;;;32.25;48.90;99155.27;106434;1272;22620;-89
2022/08/03 09:23:07;;;;;;;8.80;2.20;;;;;;;32.39;48.55;99158.13;106500;1271;22550;-90
2022/08/03 09:25:52;;;;;;;7.00;1.70;;;;;;;32.18;48.17;99157.55;106571;1271;24259;-88
2022/08/03 09:29:45;;;;;;;5.10;1.60;;;;;;;32.09;48.34;99158.11;106572;1271;24275;-90
2022/08/03 09:32:46;;;;;;;3.10;1.40;;;;;;;32.08;47.25;99155.23;105767;1283;22668;-88
2022/08/03 09:36:31;;;;;;;4.60;1.70;;;;;;;31.95;47.77;99154.77;105765;1283;22553;-89
2022/08/03 09:39:44;;;;;;;7.80;3.70;;;;;;;32.05;47.62;99154.33;104999;1290;24323;-87
2022/08/03 09:43:06;;;;;;;;;;;;;;;;;;;;;
2022/08/03 09:46:09;;;;;;;4.90;1.40;;;;;;;32.04;47.22;99147.25;104897;1290;26571;-87
2022/08/03 09:48:45;;;;;;;5.90;1.80;;;;;;;31.57;47.10;99147.20;104715;1290;24237;-87
2022/08/03 09:51:14;;;;;;;7.20;1.70;;;;;;;31.18;47.44;99148.27;105083;1290;24318;-88
2022/08/03 09:53:47;;;;;;;7.10;2.00;;;;;;;30.86;47.12;99149.23;105011;1290;22602;-89
2022/08/03 09:56:17;;;;;;;6.90;1.50;;;;;;;31.01;47.49;99147.92;104826;1290;22711;-87
2022/08/03 09:58:50;;;;;;;5.60;1.90;;;;;;;31.25;47.15;99148.83;104772;1290;23706;-91
2022/08/03 10:01:19;;;;;;;5.70;1.80;;;;;;;31.07;46.84;99146.77;104965;1290;25438;-88
2022/08/03 10:04:00;;;;;;;3.90;1.70;;;;;;;30.79;47.16;99146.32;104866;1290;22555;-87
2022/08/03 10:06:30;;;;;;;5.70;1.80;;;;;;;30.97;47.35;99143.52;104588;1290;24213;-89
2022/08/03 10:09:06;;;;;;;5.40;2.00;;;;;;;31.40;47.40;99143.36;105188;1274;22554;-89
2022/08/03 10:11:45;;;;;;;5.40;1.50;;;;;;;31.88;47.03;99144.84;106610;1271;22560;-89
2022/08/03 10:14:17;;;;;;;5.40;1.70;;;;;;;32.30;46.56;99139.81;106269;1271;25470;-91
2022/08/03 10:16:51;;;;;;;8.10;2.00;;;;;;;32.55;46.22;99141.10;106334;1271;24217;-89
2022/08/03 10:19:18;;;;;;;4.90;1.60;;;;;;;32.84;45.99;99139.02;106554;1271;23915;-88
2022/08/03 10:21:54;;;;;;;4.00;1.60;;;;;;;33.12;45.88;99133.47;106403;1271;25369;-87
2022/08/03 10:24:26;;;;;;;9.50;1.70;;;;;;;33.43;45.61;99137.56;106393;1271;25480;-87
2022/08/03 10:27:02;;;;;;;4.80;1.50;;;;;;;33.49;44.84;99134.98;106364;1274;22689;-88
2022/08/03 10:29:50;;;;;;;5.00;1.50;;;;;;;33.28;44.48;99132.41;106103;1274;24202;-88
2022/08/03 10:35:41;;;;;;;3.10;1.40;;;;;;;33.49;45.14;99129.11;106091;1274;24279;-86
2022/08/03 10:38:20;;;;;;;8.10;1.40;;;;;;;33.70;44.65;99132.80;106335;1271;24303;-89
2022/08/03 10:41:01;;;;;;;8.70;1.60;;;;;;;33.89;44.44;99129.36;106367;1271;24402;-88
2022/08/03 10:44:08;;;;;;;6.20;1.40;;;;;;;34.08;44.21;99128.48;106343;1271;22577;-90
2022/08/03 10:46:44;;;;;;;3.30;1.30;;;;;;;34.14;43.99;99126.16;106447;1271;22557;-88
2022/08/03 10:49:25;;;;;;;2.50;1.20;;;;;;;34.21;43.57;99124.71;106094;1271;24252;-89
2022/08/03 10:51:53;;;;;;;4.40;1.80;;;;;;;34.24;43.52;99123.75;106350;1271;24357;-89
2022/08/03 10:57:53;;;;;;;5.40;1.40;;;;;;;34.25;43.30;99122.15;106386;1274;24215;-88
2022/08/03 11:00:26;;;;;;;5.40;1.50;;;;;;;34.23;43.12;99120.14;106343;1274;22592;-90
2022/08/03 11:03:15;;;;;;;4.60;1.30;;;;;;;34.22;43.21;99119.79;106616;1271;24039;-90
2022/08/03 11:05:53;;;;;;;3.20;1.30;;;;;;;34.21;42.85;99120.33;106304;1274;23833;-91
2022/08/03 11:08:36;;;;;;;4.00;1.30;;;;;;;34.11;42.64;99115.33;106283;1274;24263;-90
2022/08/03 11:11:36;;;;;;;4.00;1.30;;;;;;;34.10;42.50;99116.26;106425;1271;22763;-88
2022/08/03 11:14:18;;;;;;;4.30;1.40;;;;;;;34.08;42.26;99114.45;106276;1274;25331;-89
2022/08/03 11:17:13;;;;;;;2.50;1.30;;;;;;;34.12;42.45;99111.77;106266;1274;24218;-89
2022/08/03 11:19:48;;;;;;;4.30;1.60;;;;;;;34.16;42.11;99110.67;106529;1274;22532;-90
2022/08/03 11:22:23;;;;;;;7.10;1.70;;;;;;;34.16;42.26;99109.42;106489;1271;25398;-91
2022/08/03 11:25:04;;;;;;;4.30;1.20;;;;;;;34.24;42.25;99111.34;106334;1271;22785;-88
2022/08/03 11:28:23;;;;;;;6.00;1.20;;;;;;;34.34;42.14;99110.16;106588;1271;25248;-89
2022/08/03 11:31:44;;;;;;;5.10;1.40;;;;;;;34.32;41.57;99108.90;106496;1271;25348;-91
2022/08/03 11:34:28;;;;;;;4.60;1.80;;;;;;;34.00;41.27;99105.06;106445;1271;23338;-90
2022/08/03 11:37:21;;;;;;;2.90;1.20;;;;;;;33.75;41.32;99101.35;106341;1271;22553;-89
2022/08/03 11:40:08;;;;;;;4.80;1.30;;;;;;;33.72;41.10;99101.52;106368;1274;22643;-89
2022/08/03 11:42:43;;;;;;;4.20;1.30;;;;;;;33.67;41.19;99102.52;106405;1271;22474;-90
2022/08/03 11:45:11;;;;;;;2.90;1.20;;;;;;;33.63;40.71;99094.90;106408;1271;24283;-89
2022/08/03 11:47:51;;;;;;;4.50;1.60;;;;;;;33.58;40.95;99095.10;106447;1274;22544;-91
2022/08/03 11:50:19;;;;;;;4.10;1.50;;;;;;;33.67;41.07;99094.16;106616;1271;22664;-92
2022/08/03 11:52:55;;;;;;;4.20;1.50;;;;;;;33.78;40.96;99094.50;106330;1271;25357;-91
2022/08/03 11:55:22;;;;;;;4.10;1.40;;;;;;;33.89;40.86;99092.58;106556;1271;23809;-90
2022/08/03 11:57:52;;;;;;;5.50;1.30;;;;;;;33.99;40.73;99091.76;106280;1271;22534;-87
2022/08/03 12:00:29;;;;;;;4.60;1.60;;;;;;;33.97;40.19;99085.19;106343;1271;25334;-88
2022/08/03 12:03:10;;;;;;;3.30;1.40;;;;;;;33.65;39.41;99085.56;106380;1271;23928;-88
2022/08/03 12:05:45;;;;;;;4.70;1.20;;;;;;;33.29;39.65;99081.84;106422;1271;23948;-88
2022/08/03 12:08:18;;;;;;;5.00;1.40;;;;;;;33.22;40.00;99085.13;106467;1271;22545;-90
2022/08/03 12:10:49;;;;;;;5.40;1.30;;;;;;;33.27;39.72;99079.95;106262;1271;22766;-88
2022/08/03 12:13:18;;;;;;;3.10;1.20;;;;;;;33.11;39.20;99083.98;106393;1271;22694;-88
2022/08/03 12:15:56;;;;;;;3.80;1.30;;;;;;;33.12;39.62;99079.91;106127;1272;22577;-91
2022/08/03 12:18:29;;;;;;;3.80;1.20;;;;;;;33.23;39.35;99079.05;106361;1271;22549;-90
2022/08/03 12:21:27;;;;;;;2.40;1.00;;;;;;;33.29;39.11;99072.77;106209;1271;22560;-90
2022/08/03 12:24:08;;;;;;;3.00;1.20;;;;;;;33.42;39.42;99074.82;106467;1271;24377;-89
2022/08/03 12:26:57;;;;;;;2.90;0.90;;;;;;;33.53;38.92;99074.25;106201;1271;22531;-91
2022/08/03 12:29:27;;;;;;;2.80;1.10;;;;;;;33.44;38.55;99071.75;106268;1271;22690;-90
2022/08/03 12:31:59;;;;;;;4.20;1.20;;;;;;;32.94;38.33;99069.64;106325;1272;22544;-89
2022/08/03 12:34:54;;;;;;;5.00;1.20;;;;;;;32.60;39.03;99070.23;106069;1274;24235;-91
2022/08/03 12:37:41;;;;;;;4.30;1.30;;;;;;;32.72;39.08;99069.52;106217;1271;22500;-92
2022/08/03 12:40:32;;;;;;;5.40;1.20;;;;;;;32.91;38.79;99068.34;106306;1271;25352;-90
2022/08/03 12:43:13;;;;;;;4.20;1.30;;;;;;;33.02;38.87;99070.91;106377;1272;25713;-91
2022/08/03 12:45:46;;;;;;;3.00;1.40;;;;;;;33.13;38.83;99064.54;106162;1274;23166;-91
2022/08/03 12:48:14;;;;;;;4.00;1.40;;;;;;;33.24;38.71;99060.08;106314;1272;25462;-89
2022/08/03 12:50:53;;;;;;;2.40;1.10;;;;;;;33.33;38.79;99058.86;106701;1271;24184;-89
2022/08/03 12:53:42;;;;;;;4.10;1.50;;;;;;;33.41;38.47;99060.09;106356;1271;25239;-85
2022/08/03 12:57:03;;;;;;;3.60;1.30;;;;;;;33.10;37.73;99057.41;106570;1271;24667;-91
2022/08/03 13:00:11;;;;;;;4.70;1.60;;;;;;;33.04;38.33;99058.67;106620;1271;25073;-86
2022/08/03 13:02:55;;;;;;;4.70;1.40;;;;;;;33.07;38.06;99060.90;106556;1271;25313;-88
2022/08/03 13:05:52;;;;;;;3.30;1.30;;;;;;;33.14;38.24;99058.90;106415;1272;22717;-91
2022/08/03 13:08:24;;;;;;;4.00;1.40;;;;;;;33.19;38.03;99053.02;106588;1271;24237;-87
2022/08/03 13:11:19;;;;;;;4.40;1.30;;;;;;;33.24;38.13;99053.72;106630;1271;25643;-90
2022/08/03 13:14:08;;;;;;;4.20;1.40;;;;;;;33.26;37.95;99053.07;106263;1272;22531;-92
2022/08/03 13:16:48;;;;;;;3.20;1.30;;;;;;;33.26;38.05;99051.95;106344;1271;22575;-92
2022/08/03 13:19:16;;;;;;;3.70;1.40;;;;;;;33.24;37.71;99048.23;106284;1271;24202;-91
2022/08/03 13:21:51;;;;;;;5.80;1.20;;;;;;;33.22;37.75;99051.54;106250;1274;22538;-91